Time;durP1;ratioP1;P1;durP2;ratioP2;P2;SDS_P1;SDS_P2;PMS_P1;PMS_P2;Temp;Humidity;BMP_temperature;BMP_pressure;BME280_temperature;BME280_humidity;BME280_pressure;Samples;Min_cycle;Max_cycle;Signal;HPM_P1;HPM_P2
2022/01/05 00:01:19;;;;;;;4.05;1.63;;;14.10;65.90;;;;;;5054457;28;20076;-73
2022/01/05 00:03:46;;;;;;;2.63;1.42;;;13.70;65.70;;;;;;5051729;28;20484;-73
2022/01/05 00:06:13;;;;;;;4.32;1.73;;;14.10;63.10;;;;;;5037760;28;20128;-73
2022/01/05 00:08:40;;;;;;;4.05;1.42;;;13.80;66.10;;;;;;5034371;28;20041;-73
2022/01/05 00:11:07;;;;;;;2.95;1.48;;;;;;;;;;5033487;28;20136;-73
2022/01/05 00:13:34;;;;;;;3.55;1.50;;;14.00;65.90;;;;;;5033271;28;20049;-73
2022/01/05 00:16:01;;;;;;;3.25;1.60;;;;;;;;;;5034175;28;20124;-73
2022/01/05 00:18:31;;;;;;;3.72;1.33;;;14.10;66.10;;;;;;5033401;28;20132;-73
2022/01/05 00:20:59;;;;;;;4.13;1.35;;;14.00;65.90;;;;;;5035490;28;20532;-73
2022/01/05 00:23:26;;;;;;;4.47;1.50;;;13.60;65.70;;;;;;5033393;28;20064;-73
2022/01/05 00:25:53;;;;;;;2.90;1.50;;;14.30;66.30;;;;;;5033052;28;20088;-73
2022/01/05 00:28:19;;;;;;;3.45;1.30;;;13.90;62.30;;;;;;5034137;28;20143;-73
2022/01/05 00:30:46;;;;;;;3.58;1.45;;;14.00;65.90;;;;;;5034205;28;20084;-73
2022/01/05 00:33:14;;;;;;;2.47;1.38;;;13.90;65.90;;;;;;5032791;28;20133;-73
2022/01/05 00:35:43;;;;;;;3.05;1.35;;;14.40;58.00;;;;;;5032799;28;20057;-73
2022/01/05 00:38:10;;;;;;;2.60;1.40;;;;;;;;;;5053020;28;20072;-73
2022/01/05 00:40:36;;;;;;;3.05;1.50;;;14.10;66.00;;;;;;5052682;28;20141;-73
2022/01/05 00:43:03;;;;;;;2.83;1.45;;;;;;;;;;5053846;28;20128;-73
2022/01/05 00:45:30;;;;;;;2.60;1.50;;;14.00;66.20;;;;;;5052673;28;20135;-73
2022/01/05 00:47:57;;;;;;;2.38;1.40;;;;;;;;;;5052466;28;20141;-73
2022/01/05 00:50:24;;;;;;;3.20;1.40;;;13.90;65.10;;;;;;5053499;28;20136;-73
2022/01/05 00:52:52;;;;;;;4.22;1.23;;;14.00;66.30;;;;;;5050808;28;20131;-73
2022/01/05 00:55:19;;;;;;;2.67;1.30;;;14.00;66.20;;;;;;5052546;28;20409;-73
2022/01/05 00:57:47;;;;;;;3.03;1.30;;;;;;;;;;5052436;28;20139;-73
2022/01/05 01:00:14;;;;;;;2.67;1.30;;;14.10;66.30;;;;;;5053506;28;20058;-73
2022/01/05 01:02:40;;;;;;;2.63;1.20;;;13.80;66.00;;;;;;5053288;28;20084;-73
2022/01/05 01:05:08;;;;;;;2.75;1.27;;;13.80;66.10;;;;;;5053755;28;20131;-73
2022/01/05 01:07:34;;;;;;;2.95;1.63;;;13.70;63.60;;;;;;5052260;28;20561;-73
2022/01/05 01:10:03;;;;;;;2.28;1.40;;;13.70;66.10;;;;;;5051778;28;20123;-73
2022/01/05 01:12:29;;;;;;;2.20;1.25;;;14.00;66.10;;;;;;5052260;28;20091;-73
2022/01/05 01:14:56;;;;;;;1.98;1.25;;;;;;;;;;5052116;28;20132;-73
2022/01/05 01:17:23;;;;;;;3.03;1.40;;;13.70;66.10;;;;;;5052115;28;20143;-73
2022/01/05 01:19:50;;;;;;;2.70;1.10;;;13.80;66.20;;;;;;5053301;28;20128;-73
2022/01/05 01:22:17;;;;;;;3.17;1.20;;;;;;;;;;5053194;28;20135;-73
2022/01/05 01:24:44;;;;;;;1.75;1.05;;;13.80;66.30;;;;;;5052085;28;20061;-73
2022/01/05 01:27:12;;;;;;;3.28;1.30;;;13.70;57.70;;;;;;5050183;28;20131;-73
2022/01/05 01:29:39;;;;;;;3.85;1.20;;;;;;;;;;5051890;28;20136;-73
2022/01/05 01:32:06;;;;;;;2.38;1.10;;;13.70;66.00;;;;;;5052744;28;20443;-73
2022/01/05 01:34:33;;;;;;;3.53;1.50;;;13.60;59.70;;;;;;5051527;28;20467;-73
2022/01/05 01:37:00;;;;;;;2.78;1.13;;;13.80;66.00;;;;;;5051661;28;20055;-73
2022/01/05 01:39:26;;;;;;;2.65;1.20;;;13.70;60.90;;;;;;5049327;28;20124;-73
2022/01/05 01:41:53;;;;;;;2.75;1.20;;;13.80;58.50;;;;;;5031540;28;20132;-73
2022/01/05 01:44:21;;;;;;;2.45;1.30;;;13.80;66.10;;;;;;5032776;28;20132;-73
2022/01/05 01:46:48;;;;;;;2.78;1.60;;;13.50;65.80;;;;;;5032379;28;20132;-73
2022/01/05 01:49:15;;;;;;;2.45;1.10;;;13.60;66.10;;;;;;5031613;28;20550;-73
2022/01/05 01:51:41;;;;;;;1.88;1.13;;;13.70;61.50;;;;;;5032671;28;20501;-73
2022/01/05 01:54:09;;;;;;;2.13;1.00;;;;;;;;;;5038005;28;20045;-73
2022/01/05 01:56:36;;;;;;;2.25;1.20;;;13.90;57.90;;;;;;5052200;28;20132;-73
2022/01/05 01:59:03;;;;;;;3.05;1.30;;;13.50;66.20;;;;;;5051416;28;20087;-73
2022/01/05 02:01:31;;;;;;;2.70;1.23;;;14.00;66.20;;;;;;5051402;28;20136;-73
2022/01/05 02:03:58;;;;;;;2.17;1.20;;;13.50;66.00;;;;;;5052426;28;20137;-73
2022/01/05 02:06:25;;;;;;;2.22;1.17;;;13.70;66.00;;;;;;5050854;28;20132;-73
2022/01/05 02:08:52;;;;;;;2.65;1.15;;;;;;;;;;5051279;28;20462;-73
2022/01/05 02:11:19;;;;;;;1.98;1.00;;;14.00;66.20;;;;;;5044398;28;20144;-73
2022/01/05 02:13:46;;;;;;;1.88;0.98;;;13.90;63.00;;;;;;5032231;28;20057;-73
2022/01/05 02:16:19;;;;;;;3.28;1.30;;;13.70;66.30;;;;;;5032127;28;20077;-73
2022/01/05 02:18:59;;;;;;;2.17;1.00;;;13.60;57.70;;;;;;5031053;28;20088;-73
2022/01/05 02:21:27;;;;;;;2.30;1.10;;;13.70;66.10;;;;;;5031255;28;20084;-73
2022/01/05 02:23:54;;;;;;;2.00;1.20;;;;;;;;;;5031083;28;20144;-73
2022/01/05 02:26:21;;;;;;;2.10;1.00;;;13.70;66.30;;;;;;5031954;28;20451;-73
2022/01/05 02:28:48;;;;;;;1.95;1.00;;;13.50;66.30;;;;;;5043173;28;20140;-73
2022/01/05 02:31:14;;;;;;;2.53;1.20;;;13.60;61.60;;;;;;5051968;28;20498;-74
2022/01/05 02:33:41;;;;;;;1.35;1.00;;;;;;;;;;5051977;28;20132;-73
2022/01/05 02:36:10;;;;;;;2.78;1.30;;;;;;;;;;5050700;28;20558;-73
2022/01/05 02:38:38;;;;;;;2.97;1.10;;;13.90;59.70;;;;;;5051727;28;20593;-73
2022/01/05 02:41:06;;;;;;;2.47;1.30;;;13.60;65.20;;;;;;5050680;28;20136;-73
2022/01/05 02:43:33;;;;;;;2.50;1.10;;;;;;;;;;5050777;28;20049;-73
2022/01/05 02:46:00;;;;;;;1.95;0.98;;;13.60;66.30;;;;;;5048984;28;20136;-73
2022/01/05 02:48:27;;;;;;;2.45;1.20;;;13.50;60.50;;;;;;5051851;28;20095;-73
2022/01/05 02:50:56;;;;;;;2.25;1.05;;;14.00;66.50;;;;;;5050569;28;20148;-73
2022/01/05 02:53:23;;;;;;;2.80;1.30;;;;;;;;;;5050432;28;20073;-73
2022/01/05 02:55:51;;;;;;;2.38;1.20;;;13.60;66.20;;;;;;5051749;28;20084;-73
2022/01/05 02:58:18;;;;;;;4.78;1.50;;;;;;;;;;5050693;28;20095;-73
2022/01/05 03:00:45;;;;;;;2.50;1.27;;;;;;;;;;5051885;28;20482;-73
2022/01/05 03:03:12;;;;;;;2.05;1.25;;;13.80;66.20;;;;;;5048288;28;20127;-73
2022/01/05 03:05:39;;;;;;;3.35;1.30;;;13.50;66.10;;;;;;5051426;28;20422;-73
2022/01/05 03:08:06;;;;;;;2.10;1.10;;;13.50;60.20;;;;;;5050439;28;20080;-73
2022/01/05 03:10:32;;;;;;;1.70;1.00;;;13.40;65.70;;;;;;5050546;28;20084;-73
2022/01/05 03:13:00;;;;;;;2.47;1.20;;;13.70;57.40;;;;;;5050058;28;20512;-73
2022/01/05 03:15:28;;;;;;;2.58;1.20;;;13.70;65.80;;;;;;5050071;28;20128;-73
2022/01/05 03:17:55;;;;;;;2.88;1.17;;;;;;;;;;5050343;28;20072;-73
2022/01/05 03:20:22;;;;;;;1.65;0.93;;;;;;;;;;5035521;28;20092;-73
2022/01/05 03:22:50;;;;;;;2.50;1.10;;;;;;;;;;5034194;28;20115;-73
2022/01/05 03:25:17;;;;;;;1.92;1.10;;;13.80;65.90;;;;;;5035492;28;20207;-73
2022/01/05 03:27:44;;;;;;;1.90;1.02;;;13.80;57.30;;;;;;5034156;28;20064;-73
2022/01/05 03:30:13;;;;;;;2.58;1.10;;;13.50;65.70;;;;;;5035362;28;20499;-73
2022/01/05 03:32:54;;;;;;;1.30;1.02;;;14.00;59.40;;;;;;5034292;28;20140;-73
2022/01/05 03:35:21;;;;;;;2.75;1.20;;;13.90;65.60;;;;;;5039811;28;20517;-74
2022/01/05 03:37:48;;;;;;;3.92;1.05;;;;;;;;;;5055186;28;20592;-73
2022/01/05 03:40:15;;;;;;;2.75;0.85;;;13.90;65.80;;;;;;5055037;28;20123;-73
2022/01/05 03:42:41;;;;;;;1.55;1.00;;;13.90;65.80;;;;;;5055089;28;20459;-74
2022/01/05 03:45:09;;;;;;;2.63;1.00;;;13.90;57.10;;;;;;5053718;28;20128;-73
2022/01/05 03:47:37;;;;;;;2.60;1.15;;;14.00;65.50;;;;;;5053532;28;20132;-73
2022/01/05 03:50:04;;;;;;;3.70;1.63;;;14.00;65.70;;;;;;5053491;28;20049;-73
2022/01/05 03:52:32;;;;;;;3.17;1.13;;;;;;;;;;5047039;28;20132;-73
2022/01/05 03:54:59;;;;;;;2.05;1.00;;;;;;;;;;5034883;28;20132;-73
2022/01/05 03:57:26;;;;;;;3.22;1.00;;;13.90;65.30;;;;;;5033571;28;20136;-73
2022/01/05 03:59:53;;;;;;;2.22;1.08;;;;;;;;;;5033720;28;20148;-73
2022/01/05 04:02:20;;;;;;;2.75;1.30;;;14.10;65.30;;;;;;5034919;28;20481;-73
2022/01/05 04:04:48;;;;;;;2.72;1.30;;;14.00;56.90;;;;;;5033235;28;20128;-73
2022/01/05 04:07:15;;;;;;;3.20;1.55;;;;;;;;;;5034606;28;20088;-73
2022/01/05 04:09:42;;;;;;;1.88;1.02;;;14.10;65.20;;;;;;5034831;28;20053;-73
2022/01/05 04:12:10;;;;;;;2.15;0.93;;;14.00;57.30;;;;;;5033046;28;20080;-73
2022/01/05 04:14:37;;;;;;;3.22;1.10;;;;;;;;;;5034502;28;20128;-73
2022/01/05 04:17:05;;;;;;;2.42;1.08;;;14.20;65.40;;;;;;5033386;28;20128;-73
2022/01/05 04:19:32;;;;;;;3.42;1.20;;;14.20;65.40;;;;;;5034753;28;20056;-74
2022/01/05 04:22:00;;;;;;;3.50;1.10;;;14.10;65.30;;;;;;5034488;28;20092;-73
2022/01/05 04:24:26;;;;;;;3.45;1.10;;;13.80;64.90;;;;;;5033303;28;20136;-73
2022/01/05 04:26:54;;;;;;;2.35;1.10;;;;;;;;;;5033652;28;20140;-73
2022/01/05 04:29:20;;;;;;;2.10;1.00;;;14.00;64.90;;;;;;5033040;28;20076;-73
2022/01/05 04:31:47;;;;;;;3.42;1.25;;;;;;;;;;5034305;28;20077;-73
2022/01/05 04:34:14;;;;;;;2.38;1.00;;;14.20;65.30;;;;;;5034143;28;20092;-73
2022/01/05 04:36:41;;;;;;;2.03;1.00;;;13.90;65.20;;;;;;5033097;28;20141;-73
2022/01/05 04:39:09;;;;;;;3.17;1.20;;;14.20;56.70;;;;;;5033230;28;20057;-73
2022/01/05 04:41:36;;;;;;;3.28;1.30;;;;;;;;;;5032520;28;20136;-73
2022/01/05 04:44:03;;;;;;;2.58;1.08;;;14.30;65.10;;;;;;5034172;28;20136;-73
2022/01/05 04:46:30;;;;;;;2.53;1.10;;;13.80;64.10;;;;;;5032786;28;20512;-73
2022/01/05 04:48:57;;;;;;;1.80;1.20;;;14.10;65.20;;;;;;5032968;28;20471;-73
2022/01/05 04:51:24;;;;;;;2.72;1.17;;;;;;;;;;5033616;28;20132;-73
2022/01/05 04:53:51;;;;;;;2.95;1.10;;;14.20;64.90;;;;;;5033887;28;20466;-73
2022/01/05 04:56:19;;;;;;;1.73;0.98;;;14.20;56.70;;;;;;5032687;28;20057;-73
2022/01/05 04:58:46;;;;;;;2.88;1.30;;;;;;;;;;5032748;28;20092;-73
2022/01/05 05:01:13;;;;;;;2.67;1.23;;;14.10;65.10;;;;;;5033223;28;20467;-73
2022/01/05 05:03:40;;;;;;;2.05;1.00;;;14.20;65.00;;;;;;5032707;28;20136;-73
2022/01/05 05:06:06;;;;;;;3.50;1.48;;;14.20;61.50;;;;;;5033389;28;20053;-73
2022/01/05 05:08:33;;;;;;;3.38;1.17;;;14.00;64.70;;;;;;5032454;28;20136;-73
2022/01/05 05:11:00;;;;;;;2.25;1.08;;;14.00;64.90;;;;;;5042630;28;20140;-73
2022/01/05 05:13:28;;;;;;;2.17;1.10;;;14.20;63.10;;;;;;5053225;28;20045;-73
2022/01/05 05:15:55;;;;;;;2.28;1.20;;;14.30;62.60;;;;;;5052807;28;20582;-73
2022/01/05 05:18:21;;;;;;;2.95;1.10;;;14.00;64.60;;;;;;5044377;28;20128;-73
2022/01/05 05:20:49;;;;;;;4.13;1.00;;;;;;;;;;5038314;28;20076;-73
2022/01/05 05:23:16;;;;;;;2.45;1.13;;;14.30;56.70;;;;;;5032044;28;20152;-73
2022/01/05 05:25:43;;;;;;;3.15;1.17;;;14.00;64.30;;;;;;5032064;28;20049;-73
2022/01/05 05:28:10;;;;;;;2.15;1.10;;;13.80;64.40;;;;;;5043137;28;20139;-73
2022/01/05 05:30:38;;;;;;;3.10;1.23;;;14.30;56.50;;;;;;5053001;28;20144;-73
2022/01/05 05:33:05;;;;;;;3.40;1.17;;;;;;;;;;5051928;28;20155;-73
2022/01/05 05:35:32;;;;;;;2.60;1.30;;;13.90;64.30;;;;;;5040103;28;20136;-73
2022/01/05 05:37:59;;;;;;;3.00;1.20;;;14.20;64.50;;;;;;5031999;28;20446;-73
2022/01/05 05:40:25;;;;;;;3.42;1.30;;;14.40;64.10;;;;;;5031754;28;20088;-73
2022/01/05 05:42:52;;;;;;;2.08;1.25;;;14.30;64.50;;;;;;5031370;28;20132;-73
2022/01/05 05:45:19;;;;;;;2.65;1.10;;;;;;;;;;5031919;28;20148;-73
2022/01/05 05:47:47;;;;;;;1.90;1.20;;;14.30;64.80;;;;;;5032670;28;20080;-74
2022/01/05 05:50:14;;;;;;;2.90;1.17;;;14.40;64.50;;;;;;5032596;28;20080;-73
2022/01/05 05:52:41;;;;;;;2.70;1.17;;;14.40;64.50;;;;;;5032494;28;20124;-73
2022/01/05 05:55:08;;;;;;;2.03;1.00;;;14.40;57.10;;;;;;5031565;28;20133;-73
2022/01/05 05:57:35;;;;;;;3.95;1.40;;;14.40;64.70;;;;;;5032729;28;20469;-73
2022/01/05 06:00:02;;;;;;;2.22;1.13;;;14.50;60.30;;;;;;5031501;28;20457;-73
2022/01/05 06:02:29;;;;;;;1.25;1.02;;;14.40;64.30;;;;;;5031470;28;20092;-73
2022/01/05 06:04:57;;;;;;;2.95;1.20;;;14.30;64.30;;;;;;5031532;28;20084;-73
2022/01/05 06:07:24;;;;;;;1.77;0.90;;;;;;;;;;5032299;28;20124;-73
2022/01/05 06:09:50;;;;;;;4.18;1.10;;;14.30;64.60;;;;;;5032598;28;20081;-73
2022/01/05 06:12:17;;;;;;;1.85;1.10;;;14.40;64.40;;;;;;5031289;28;20139;-73
2022/01/05 06:14:44;;;;;;;2.60;1.20;;;;;;;;;;5031140;28;20498;-73
2022/01/05 06:17:11;;;;;;;2.33;1.10;;;;;;;;;;5031162;28;20468;-73
2022/01/05 06:19:38;;;;;;;1.80;1.02;;;;;;;;;;5031256;28;20132;-73
2022/01/05 06:22:07;;;;;;;2.72;1.10;;;14.40;64.50;;;;;;5032415;28;20084;-73
2022/01/05 06:24:34;;;;;;;2.30;1.17;;;14.20;64.50;;;;;;5031103;28;20153;-73
2022/01/05 06:27:01;;;;;;;1.98;0.93;;;14.40;64.50;;;;;;5033858;28;20053;-73
2022/01/05 06:29:28;;;;;;;2.42;1.13;;;14.00;64.10;;;;;;5050780;28;20095;-73
2022/01/05 06:31:54;;;;;;;2.20;1.10;;;14.30;59.20;;;;;;5051136;28;20135;-73
2022/01/05 06:34:21;;;;;;;3.72;1.30;;;14.00;64.30;;;;;;5050678;28;20139;-73
2022/01/05 06:36:48;;;;;;;2.15;1.13;;;14.50;64.50;;;;;;5050716;28;20131;-73
2022/01/05 06:39:16;;;;;;;4.50;1.50;;;16.60;58.40;;;;;;5052025;28;20040;-73
2022/01/05 06:41:43;;;;;;;2.10;1.08;;;14.40;64.60;;;;;;5049810;28;20063;-73
2022/01/05 06:44:10;;;;;;;4.05;1.17;;;14.50;64.40;;;;;;5049964;28;20143;-73
2022/01/05 06:46:37;;;;;;;2.33;1.20;;;14.30;60.60;;;;;;5050365;28;20135;-73
2022/01/05 06:49:04;;;;;;;2.15;0.95;;;14.40;64.20;;;;;;5050603;28;20132;-73
2022/01/05 06:51:30;;;;;;;1.58;0.95;;;14.50;64.50;;;;;;5038473;28;20145;-73
2022/01/05 06:53:57;;;;;;;2.42;1.20;;;14.40;58.90;;;;;;5034322;28;20096;-73
2022/01/05 06:56:25;;;;;;;2.25;1.17;;;14.40;64.30;;;;;;5035728;28;20522;-73
2022/01/05 06:58:52;;;;;;;3.55;1.25;;;14.40;64.20;;;;;;5036274;28;20136;-73
2022/01/05 07:01:19;;;;;;;3.00;1.10;;;14.50;64.50;;;;;;5034889;28;20148;-73
2022/01/05 07:03:45;;;;;;;2.47;1.20;;;14.40;58.80;;;;;;5034457;28;20133;-73
2022/01/05 07:06:12;;;;;;;1.73;1.00;;;14.60;64.50;;;;;;5035800;28;20465;-73
2022/01/05 07:08:39;;;;;;;2.38;1.42;;;14.50;64.30;;;;;;5034721;28;20136;-73
2022/01/05 07:11:06;;;;;;;2.75;1.10;;;15.30;64.60;;;;;;5034568;28;20094;-73
2022/01/05 07:13:35;;;;;;;2.42;1.17;;;14.50;64.50;;;;;;5034697;28;20081;-73
2022/01/05 07:16:02;;;;;;;3.22;1.13;;;;;;;;;;5035174;28;20137;-73
2022/01/05 07:18:29;;;;;;;2.83;1.13;;;;;;;;;;5054704;28;20080;-73
2022/01/05 07:20:56;;;;;;;2.30;1.17;;;14.20;59.40;;;;;;5054253;28;20136;-73
2022/01/05 07:23:23;;;;;;;2.58;1.20;;;15.00;64.50;;;;;;5054437;28;20136;-73
2022/01/05 07:25:49;;;;;;;2.03;0.95;;;14.50;60.20;;;;;;5055166;28;20139;-73
2022/01/05 07:28:16;;;;;;;2.80;1.10;;;14.50;57.80;;;;;;5055380;28;20501;-73
2022/01/05 07:30:44;;;;;;;3.83;1.30;;;14.60;64.10;;;;;;5054306;28;20136;-73
2022/01/05 07:33:12;;;;;;;2.13;1.10;;;14.40;64.20;;;;;;5052522;28;20132;-73
2022/01/05 07:35:39;;;;;;;2.85;1.00;;;14.70;64.40;;;;;;5033775;28;20049;-73
2022/01/05 07:38:06;;;;;;;2.20;1.10;;;;;;;;;;5043067;28;20099;-72
2022/01/05 07:40:33;;;;;;;2.45;1.20;;;14.50;64.30;;;;;;5055021;28;20135;-70
2022/01/05 07:43:01;;;;;;;3.47;1.17;;;14.50;64.10;;;;;;5054289;28;20087;-73
2022/01/05 07:45:28;;;;;;;2.55;1.10;;;;;;;;;;5053675;28;20128;-73
2022/01/05 07:47:56;;;;;;;3.00;1.20;;;14.50;56.00;;;;;;5053914;28;20553;-74
2022/01/05 07:50:23;;;;;;;2.70;1.48;;;;;;;;;;5051882;28;20092;-74
2022/01/05 07:52:51;;;;;;;5.70;1.20;;;;;;;;;;5053816;28;20164;-73
2022/01/05 07:55:17;;;;;;;3.28;1.20;;;14.60;64.00;;;;;;5054681;28;20080;-73
2022/01/05 07:57:44;;;;;;;3.47;1.50;;;;;;;;;;5054102;28;20120;-74
2022/01/05 08:00:12;;;;;;;1.75;0.98;;;14.60;62.80;;;;;;5053336;28;20073;-74
2022/01/05 08:02:39;;;;;;;2.78;1.33;;;;;;;;;;5054074;28;20080;-74
2022/01/05 08:05:08;;;;;;;2.17;1.20;;;14.40;63.90;;;;;;5052573;28;20561;-74
2022/01/05 08:07:35;;;;;;;2.10;1.00;;;14.00;60.20;;;;;;5051243;28;20048;-74
2022/01/05 08:10:02;;;;;;;3.17;1.08;;;14.00;63.60;;;;;;5053681;28;20135;-74
2022/01/05 08:12:29;;;;;;;2.97;1.13;;;14.70;63.90;;;;;;5053288;28;20057;-74
2022/01/05 08:14:56;;;;;;;3.33;1.20;;;14.70;60.80;;;;;;5053184;28;20061;-74
2022/01/05 08:17:22;;;;;;;4.05;1.10;;;14.60;64.10;;;;;;5052320;28;20136;-74
2022/01/05 08:19:50;;;;;;;2.10;1.08;;;;;;;;;;5041690;28;20098;-74
2022/01/05 08:22:18;;;;;;;1.40;0.88;;;14.40;63.90;;;;;;5053398;28;20053;-75
2022/01/05 08:24:45;;;;;;;2.70;1.20;;;;;;;;;;5052849;28;20141;-75
2022/01/05 08:27:12;;;;;;;3.97;1.23;;;14.80;55.90;;;;;;5052958;28;20136;-75
2022/01/05 08:29:39;;;;;;;2.67;1.23;;;;;;;;;;5045281;28;20128;-75
2022/01/05 08:32:06;;;;;;;2.67;1.23;;;14.70;55.80;;;;;;5052848;28;20136;-75
2022/01/05 08:34:33;;;;;;;2.28;1.00;;;14.90;63.80;;;;;;5052761;28;20127;-75
2022/01/05 08:37:00;;;;;;;2.78;0.90;;;14.40;60.30;;;;;;5052219;28;20136;-75
2022/01/05 08:39:28;;;;;;;3.20;1.10;;;14.80;63.90;;;;;;5052844;28;20545;-75
2022/01/05 08:41:55;;;;;;;1.52;0.77;;;;;;;;;;5051288;28;20139;-75
2022/01/05 08:44:22;;;;;;;3.78;1.35;;;;;;;;;;5034136;28;20577;-75
2022/01/05 08:46:49;;;;;;;3.08;1.00;;;;;;;;;;5050348;28;20446;-75
2022/01/05 08:49:17;;;;;;;1.95;0.70;;;;;;;;;;5052397;28;20133;-75
2022/01/05 08:51:44;;;;;;;1.95;1.08;;;14.20;63.30;;;;;;5052729;28;20084;-75
2022/01/05 08:54:10;;;;;;;1.40;0.82;;;14.80;57.20;;;;;;5052648;28;20060;-75
2022/01/05 08:56:39;;;;;;;1.30;0.80;;;14.90;63.80;;;;;;5051219;28;20051;-75
2022/01/05 08:59:05;;;;;;;2.22;1.00;;;14.80;63.60;;;;;;5048628;28;20566;-75
2022/01/05 09:01:33;;;;;;;1.33;0.70;;;;;;;;;;5052487;28;20140;-75
2022/01/05 09:03:59;;;;;;;1.73;0.90;;;14.80;63.80;;;;;;5043972;28;20566;-74
2022/01/05 09:06:26;;;;;;;3.50;1.13;;;14.90;63.90;;;;;;5048436;28;20088;-73
2022/01/05 09:08:53;;;;;;;2.53;1.10;;;14.90;57.80;;;;;;5052391;28;20078;-73
2022/01/05 09:11:20;;;;;;;1.25;0.90;;;14.20;63.20;;;;;;5053559;28;20215;-73
2022/01/05 09:13:48;;;;;;;1.58;0.80;;;14.90;55.60;;;;;;5052662;28;20114;-73
2022/01/05 09:16:15;;;;;;;2.47;1.02;;;;;;;;;;5051149;28;20072;-73
2022/01/05 09:18:42;;;;;;;2.08;1.10;;;14.30;63.40;;;;;;5052496;28;20108;-73
2022/01/05 09:21:09;;;;;;;1.30;0.82;;;15.00;63.80;;;;;;5052454;28;20128;-73
2022/01/05 09:23:35;;;;;;;2.20;0.88;;;14.90;63.60;;;;;;5052487;28;20063;-73
2022/01/05 09:26:03;;;;;;;1.83;0.80;;;15.70;63.80;;;;;;5051901;28;20136;-74
2022/01/05 09:28:30;;;;;;;1.02;0.80;;;;;;;;;;5051576;28;20053;-74
2022/01/05 09:30:58;;;;;;;1.95;0.90;;;15.00;63.50;;;;;;5051922;28;20124;-74
2022/01/05 09:33:24;;;;;;;1.85;0.90;;;15.10;63.50;;;;;;5051983;28;20077;-74
2022/01/05 09:36:01;;;;;;;1.92;0.80;;;;;;;;;;5040353;28;20076;-75
2022/01/05 09:41:56;;;;;;;2.00;0.93;;;14.30;63.10;;;;;;5031923;28;20080;-75
2022/01/05 09:44:10;;;;;;;1.38;0.88;;;15.90;64.20;;;;;;5048414;28;20045;-75
2022/01/05 09:46:45;;;;;;;1.33;0.80;;;15.10;63.50;;;;;;5031702;28;20081;-75
2022/01/05 09:49:12;;;;;;;0.77;0.60;;;15.00;55.50;;;;;;5031732;28;20053;-75
2022/01/05 09:51:41;;;;;;;1.27;0.88;;;15.00;55.40;;;;;;5049036;28;20056;-74
2022/01/05 09:54:09;;;;;;;1.58;0.88;;;15.10;57.70;;;;;;5050608;28;20084;-74
2022/01/05 09:56:35;;;;;;;3.70;1.10;;;15.00;63.50;;;;;;5052036;28;20131;-74
2022/01/05 09:59:02;;;;;;;2.67;1.05;;;14.90;63.10;;;;;;5050519;28;20497;-74
2022/01/05 10:01:30;;;;;;;2.03;1.00;;;15.20;63.50;;;;;;5050973;28;20550;-74
2022/01/05 10:03:59;;;;;;;2.38;0.90;;;15.10;63.30;;;;;;5050577;28;20511;-75
2022/01/05 10:06:25;;;;;;;1.75;0.90;;;14.70;63.40;;;;;;5050641;28;20102;-74
2022/01/05 10:08:52;;;;;;;1.85;0.85;;;15.10;59.20;;;;;;5050871;28;20506;-74
2022/01/05 10:11:20;;;;;;;1.70;0.95;;;14.20;62.90;;;;;;5064901;28;20140;-74
2022/01/05 10:13:47;;;;;;;1.70;0.90;;;15.10;63.60;;;;;;5050897;28;20084;-74
2022/01/05 10:16:14;;;;;;;3.75;1.00;;;;;;;;;;5052346;28;20041;-73
2022/01/05 10:18:42;;;;;;;2.05;0.90;;;;;;;;;;5054104;28;20136;-74
2022/01/05 10:21:12;;;;;;;1.60;0.80;;;15.10;55.30;;;;;;5055339;28;20063;-74
2022/01/05 10:23:41;;;;;;;2.05;0.95;;;15.20;55.40;;;;;;5053664;28;20172;-74
2022/01/05 10:26:39;;;;;;;2.10;0.90;;;15.10;63.50;;;;;;5037982;28;20072;-75
2022/01/05 10:29:06;;;;;;;1.55;0.90;;;15.20;63.30;;;;;;5015482;28;20453;-74
2022/01/05 10:31:34;;;;;;;2.17;1.13;;;15.30;63.40;;;;;;5046832;28;20044;-74
2022/01/05 10:34:14;;;;;;;2.45;1.00;;;15.20;55.30;;;;;;5056471;28;20132;-74
2022/01/05 10:36:46;;;;;;;4.00;1.10;;;15.90;63.90;;;;;;5054858;28;20423;-75
2022/01/05 10:39:13;;;;;;;3.67;1.10;;;;;;;;;;5056242;28;20080;-74
2022/01/05 10:41:40;;;;;;;2.30;0.90;;;15.20;63.30;;;;;;5056371;28;20080;-74
2022/01/05 10:44:08;;;;;;;3.70;1.30;;;15.30;63.50;;;;;;5058166;28;20136;-74
2022/01/05 10:46:35;;;;;;;2.22;0.98;;;;;;;;;;5052749;28;20128;-73
2022/01/05 10:49:03;;;;;;;2.63;1.00;;;;;;;;;;5048475;28;20056;-72
2022/01/05 10:51:30;;;;;;;1.90;0.90;;;14.60;62.90;;;;;;5039067;28;20409;-72
2022/01/05 10:54:14;;;;;;;2.80;0.98;;;15.90;63.60;;;;;;5050792;28;20095;-74
2022/01/05 10:56:41;;;;;;;0.90;0.75;;;;;;;;;;5050359;28;20049;-72
2022/01/05 10:59:08;;;;;;;4.57;1.25;;;14.40;63.00;;;;;;5050690;28;20049;-73
2022/01/05 11:01:35;;;;;;;5.55;1.80;;;15.10;63.40;;;;;;5050650;28;20059;-73
2022/01/05 11:04:15;;;;;;;4.05;1.25;;;14.30;62.60;;;;;;5049689;28;20136;-73
2022/01/05 11:06:57;;;;;;;5.57;1.50;;;15.50;63.60;;;;;;5050365;28;20064;-73
2022/01/05 11:09:25;;;;;;;5.50;1.75;;;15.90;55.70;;;;;;5050432;28;20060;-73
2022/01/05 11:11:52;;;;;;;5.38;1.77;;;15.40;63.00;;;;;;5050265;28;20874;-74
2022/01/05 11:14:20;;;;;;;6.40;2.08;;;15.40;63.40;;;;;;5051374;28;20081;-74
2022/01/05 11:16:47;;;;;;;8.57;2.03;;;15.50;63.30;;;;;;5050608;28;20132;-74
2022/01/05 11:19:15;;;;;;;5.78;1.55;;;15.50;60.50;;;;;;5051012;28;20140;-74
2022/01/05 11:22:02;;;;;;;6.55;2.08;;;15.60;57.00;;;;;;5050394;28;20128;-74
2022/01/05 11:24:31;;;;;;;9.32;1.92;;;16.00;63.40;;;;;;5050019;28;20057;-73
2022/01/05 11:26:57;;;;;;;6.22;1.65;;;15.50;63.50;;;;;;5050155;28;20081;-73
2022/01/05 11:29:24;;;;;;;8.23;2.00;;;15.60;55.60;;;;;;5050177;28;20127;-73
2022/01/05 11:31:51;;;;;;;7.63;1.98;;;15.20;63.10;;;;;;5048497;28;20148;-73
2022/01/05 11:34:18;;;;;;;5.57;2.05;;;;;;;;;;5049454;28;20084;-73
2022/01/05 11:36:45;;;;;;;7.30;2.08;;;15.60;63.10;;;;;;5048382;28;20132;-73
2022/01/05 11:39:12;;;;;;;7.07;1.80;;;15.60;63.20;;;;;;5045373;28;20578;-74
2022/01/05 11:41:44;;;;;;;5.03;1.75;;;14.90;55.90;;;;;;5048836;28;20139;-74
2022/01/05 11:44:11;;;;;;;5.07;1.77;;;;;;;;;;5067657;28;20516;-73
2022/01/05 11:46:38;;;;;;;6.05;1.83;;;15.50;63.10;;;;;;5053393;28;20148;-74
2022/01/05 11:49:07;;;;;;;4.10;1.30;;;15.50;55.10;;;;;;5053513;28;20045;-73
2022/01/05 11:51:48;;;;;;;5.70;1.73;;;15.60;63.00;;;;;;5050943;28;20072;-74
2022/01/05 11:54:15;;;;;;;4.85;1.48;;;15.70;63.40;;;;;;5051452;28;20052;-73
2022/01/05 11:56:43;;;;;;;5.82;1.42;;;15.30;62.90;;;;;;5052476;28;20053;-73
2022/01/05 11:59:20;;;;;;;5.60;1.60;;;15.60;63.10;;;;;;5050637;28;20139;-74
2022/01/05 12:01:57;;;;;;;4.05;1.80;;;15.60;63.00;;;;;;5053246;28;20526;-74
2022/01/05 12:04:24;;;;;;;5.18;1.77;;;14.80;62.60;;;;;;5052326;28;20048;-73
2022/01/05 12:07:07;;;;;;;4.18;1.70;;;15.50;55.70;;;;;;5050466;28;20124;-74
2022/01/05 12:09:34;;;;;;;4.57;1.67;;;15.30;61.70;;;;;;5050297;28;20052;-73
2022/01/05 12:12:30;;;;;;;6.20;1.80;;;15.50;55.10;;;;;;5050748;28;20140;-73
2022/01/05 12:14:57;;;;;;;3.90;1.52;;;16.30;63.40;;;;;;5051293;28;20053;-73
2022/01/05 12:17:24;;;;;;;4.85;1.40;;;;;;;;;;5052631;28;20083;-73
2022/01/05 12:20:13;;;;;;;4.95;1.75;;;16.30;60.60;;;;;;5065294;28;20048;-73
2022/01/05 12:22:40;;;;;;;5.38;1.48;;;;;;;;;;5052899;28;20146;-73
2022/01/05 12:25:17;;;;;;;5.22;1.85;;;15.40;63.40;;;;;;5052969;28;20060;-73
2022/01/05 12:27:59;;;;;;;5.13;1.73;;;15.40;57.10;;;;;;5053062;28;20049;-73
2022/01/05 12:30:46;;;;;;;7.60;1.55;;;15.50;63.20;;;;;;5035681;28;20145;-73
2022/01/05 12:33:19;;;;;;;6.30;1.65;;;15.80;63.70;;;;;;5029581;28;20140;-72
2022/01/05 12:35:58;;;;;;;5.90;1.50;;;15.40;58.50;;;;;;5033132;28;20057;-72
2022/01/05 12:38:38;;;;;;;4.22;1.50;;;15.50;61.00;;;;;;5033672;28;20049;-72
2022/01/05 12:41:34;;;;;;;4.63;1.50;;;15.30;63.50;;;;;;5033048;28;20053;-72
2022/01/05 12:44:22;;;;;;;3.95;1.40;;;15.50;61.60;;;;;;5032791;28;20061;-72
2022/01/05 12:46:49;;;;;;;4.47;1.70;;;14.60;63.40;;;;;;5031056;28;20049;-71
2022/01/05 12:49:17;;;;;;;3.30;1.55;;;;;;;;;;5052509;28;20076;-72
2022/01/05 12:51:49;;;;;;;4.10;1.50;;;14.40;63.40;;;;;;5052629;28;20543;-72
2022/01/05 12:54:18;;;;;;;6.97;1.90;;;14.30;63.40;;;;;;5052860;28;20102;-71
2022/01/05 12:56:48;;;;;;;4.95;1.60;;;15.70;64.10;;;;;;5052368;28;20056;-71
2022/01/05 12:59:21;;;;;;;5.00;1.70;;;15.10;55.80;;;;;;5052529;28;20059;-72
2022/01/05 13:01:48;;;;;;;3.75;1.50;;;14.60;63.40;;;;;;5052220;28;20139;-72
2022/01/05 13:04:15;;;;;;;5.03;1.77;;;14.70;60.90;;;;;;5035702;28;20140;-72
2022/01/05 13:06:43;;;;;;;3.60;1.48;;;14.40;63.50;;;;;;5033466;28;20444;-72
2022/01/05 13:09:10;;;;;;;5.50;1.80;;;14.40;63.50;;;;;;5051090;28;20076;-72
2022/01/05 13:11:39;;;;;;;5.45;1.98;;;14.90;60.20;;;;;;5052674;28;20052;-72
2022/01/05 13:14:14;;;;;;;3.63;1.50;;;15.10;63.50;;;;;;5053821;28;20051;-72
2022/01/05 13:16:42;;;;;;;4.97;1.70;;;15.00;55.70;;;;;;5051303;28;20402;-73
2022/01/05 13:19:15;;;;;;;5.30;1.30;;;;;;;;;;5050389;28;20524;-73